Historique des mesures à Cassis (13260), France
Quotidien Résumé Octobre 22, 2017 Unités:  Métrique    US   Métrique/US
« Précédent (Jour)
Suivant (Jour) »
Quotidien Hebdomadaire Mensuel Annuel Période au choix
  Maximum: Minimum: Moyenne:
Température: TemperatureC °C 14.4 °C 16 °C
Point de rosée: DewpointC °C 3.7 °C 5.8 °C
Humidité: Humidity % 39 % 48 %
Vitesse du vent: 0 km/h 13.2 km/h 28.5 km/h
Rafales: 0 km/h - -
Vent:- - SW
Pression: PressurehPa hPa 1014.4 hPa -
Précipitations: 0.0 mm    
Historical Graphs
 
 
Mesures pour : Octobre 22, 2017
Heure Temperature Point de rosée Pression Vent Vitesse du vent Rafales Humidité Pluie (par heure) Conditions
TemperatureC °C DewpointC °C PressurehPa hPa Calm     Humidity % HourlyPrecipMM mm SoftwareType W/m2
00:11 17.9 °C 11.7 °C 1016.5 hPa WSW 13.2 km/h 54.4 km/h 67 % 0.0 mm open2300-1.11 W/m2
01:11 17.8 °C 10.2 °C 1016.8 hPa NNW 35.2 km/h 47.3 km/h 61 % 0.0 mm open2300-1.11 W/m2
02:11 17.6 °C 10.2 °C 1016.5 hPa NW 46.3 km/h 46.3 km/h 62 % 0.0 mm open2300-1.11 W/m2
03:11 17.3 °C 9.7 °C 1016.5 hPa NW 30.7 km/h 34.8 km/h 61 % 0.0 mm open2300-1.11 W/m2
04:11 17.3 °C 8.1 °C 1016.1 hPa North 22 km/h 22.5 km/h 55 % 0.0 mm open2300-1.11 W/m2
06:11 15.9 °C 6.8 °C 1015.8 hPa NNW 19.2 km/h 45.9 km/h 55 % 0.0 mm open2300-1.11 W/m2
07:11 15.4 °C 6.9 °C 1015.8 hPa North 30.7 km/h 32.3 km/h 57 % 0.0 mm open2300-1.11 W/m2
08:11 14.9 °C 6.4 °C 1016.1 hPa NNW 52 km/h 52 km/h 57 % 0.0 mm open2300-1.11 W/m2
09:11 15.3 °C 6.3 °C 1016.8 hPa NNW 27.2 km/h 49.2 km/h 55 % 0.0 mm open2300-1.11 W/m2
10:11 15.3 °C 6.0 °C 1017.2 hPa NE 19.2 km/h 43.5 km/h 54 % 0.0 mm open2300-1.11 W/m2
11:11 16.3 °C 6.1 °C 1017.2 hPa NE 30.7 km/h 71.1 km/h 51 % 0.0 mm open2300-1.11 W/m2
12:11 16.9 °C 5.8 °C 1016.5 hPa NW 46.8 km/h 46.8 km/h 48 % 0.0 mm open2300-1.11 W/m2
13:11 17.5 °C 5.0 °C 1016.1 hPa NW 29 km/h 56.2 km/h 44 % 0.0 mm open2300-1.11 W/m2
14:11 17.9 °C 4.4 °C 1015.8 hPa NNE 34.8 km/h 40.7 km/h 41 % 0.0 mm open2300-1.11 W/m2
15:11 18.3 °C 4.1 °C 1014.8 hPa NNE 24.8 km/h 48.6 km/h 39 % 0.0 mm open2300-1.11 W/m2
16:11 18.4 °C 4.2 °C 1014.4 hPa North 17.4 km/h 36.5 km/h 39 % 0.0 mm open2300-1.11 W/m2
17:11 18.4 °C 4.2 °C 1014.4 hPa WNW 38.3 km/h 38.3 km/h 39 % 0.0 mm open2300-1.11 W/m2
18:11 17.8 °C 4.0 °C 1014.4 hPa NNW 19.6 km/h 27.2 km/h 40 % 0.0 mm open2300-1.11 W/m2
19:11 17.1 °C 3.7 °C 1015.5 hPa NNW 13.2 km/h 29.5 km/h 41 % 0.0 mm open2300-1.11 W/m2
20:11 16.2 °C 3.9 °C 1016.1 hPa NW 23.8 km/h 23.8 km/h 44 % 0.0 mm open2300-1.11 W/m2
21:11 15.8 °C 4.2 °C 1016.5 hPa NNW 40.7 km/h 40.7 km/h 46 % 0.0 mm open2300-1.11 W/m2
22:11 15.2 °C 3.9 °C 1016.5 hPa NNE 33.6 km/h 45.4 km/h 47 % 0.0 mm open2300-1.11 W/m2
23:11 14.4 °C 4.2 °C 1016.8 hPa NW 35.2 km/h 35.2 km/h 50 % 0.0 mm open2300-1.11 W/m2
Observations météo à CASSIS
WU-History script by Weather Underground - 1 mb